• Join FlightAware (Why Join?)
  • Login
  • US Flag 
01:51PM EDT


 

Airport Tracker/Info


-or-


 

Live Flight TrackerFlight Track Log ✈ ASQ4253 ✈ 30-Jul-2013 ✈ KCAE - KIAH

Flight Track Log - Related Links

Times and Time Zones

All times are in EDT time to prevent confusion due to time zone crossing. See the ASQ4253 flight status page for this flight to view local times or setup timezone preferences in your user account.

Time Position Orientation Groundspeed Altitude Reporting Facility
EDT Latitude Longitude Course Direction KTS MPH feet Rate Location/Type
05:11PM 33.8667 -81.0467 169° South 225 259 3,800  Level Jacksonville Center
05:12PM 33.8022 -81.0656 194° South 255 293 5,600 2,040 Climbing Jacksonville Center
05:13PM 33.7203 -81.5572 237° Southwest  Level FlightAware Approximate
05:13PM 33.7617 -81.1439 238° Southwest 237 273 7,900  Level Jacksonville Center
05:14PM 33.6617 -81.6647 237° Southwest  Level FlightAware Approximate
05:14PM 33.7272 -81.2194 241° Southwest 249 287 9,800  Level Jacksonville Center
05:15PM 33.6081 -81.7756 243° Southwest  Level FlightAware Approximate
05:15PM 33.6928 -81.3075 245° Southwest 273 314 11,000  Level Jacksonville Center
05:16PM 33.5504 -81.8926 236° Southwest  Level FlightAware Approximate
05:16PM 33.6522 -81.4056 244° Southwest 304 350 11,900  Level Jacksonville Center
05:19PM 33.5267 -81.6442 238° Southwest 353 406 14,500 1,020 Climbing Atlanta Center
05:20PM 33.4575 -81.7306 226° Southwest 358 412 15,500 960 Climbing Atlanta Center
05:21PM 33.4050 -81.8317 238° Southwest 369 425 16,500 960 Climbing Atlanta Center
05:22PM 33.3756 -81.9467 253° West 352 405 17,500 900 Climbing Atlanta Center
05:23PM 33.3461 -82.0594 253° West 357 411 18,300 900 Climbing Atlanta Center
05:24PM 33.3189 -82.1769 255° West 367 422 19,300 960 Climbing Atlanta Center
05:25PM 33.2892 -82.2942 253° West 367 422 20,300 960 Climbing Atlanta Center
05:26PM 33.2594 -82.4142 254° West 367 422 21,300 900 Climbing Atlanta Center
05:27PM 33.2319 -82.5314 254° West 367 422 22,200 900 Climbing Atlanta Center
05:28PM 33.1997 -82.6486 252° West 367 422 23,200 960 Climbing Atlanta Center
05:29PM 33.1719 -82.7681 255° West 367 422 24,200 960 Climbing Atlanta Center
05:30PM 33.1458 -82.8803 254° West 367 422 25,200 900 Climbing Atlanta Center
05:31PM 33.1156 -82.9847 251° West 367 422 26,100 900 Climbing Atlanta Center
05:32PM 33.0872 -83.0992 254° West 366 421 27,100 960 Climbing Atlanta Center
05:33PM 33.0589 -83.2111 253° West 366 421 28,100 960 Climbing Atlanta Center
05:34PM 33.0303 -83.3400 255° West 361 415 29,100 960 Climbing Atlanta Center
05:35PM 33.0039 -83.4517 254° West 361 415 30,100 960 Climbing Atlanta Center
05:36PM 32.9731 -83.5608 251° West 361 415 31,100 960 Climbing Atlanta Center
05:37PM 32.9442 -83.6725 253° West 361 415 32,100 960 Climbing Atlanta Center
05:38PM 32.9153 -83.7789 252° West 361 415 33,100 900 Climbing Atlanta Center
05:39PM 32.8883 -83.8903 254° West 356 410 34,000 900 Climbing Atlanta Center
05:40PM 32.8569 -83.9992 251° West 356 410 34,900 780 Climbing Atlanta Center
05:41PM 32.8300 -84.1081 254° West 351 404 35,600 540 Climbing Atlanta Center
05:42PM 32.8006 -84.2094 251° West 351 404 36,000 180 Climbing Atlanta Center
05:43PM 32.7689 -84.3353 253° West 364 419 36,000  Level Atlanta Center
05:44PM 32.7372 -84.4586 253° West 377 434 36,000  Level Atlanta Center
05:45PM 32.7014 -84.5894 252° West 395 455 36,000  Level Atlanta Center
05:46PM 32.6547 -84.7172 247° West 416 479 36,000  Level Atlanta Center
05:47PM 32.6061 -84.8231 241° Southwest 429 494 36,000  Level Atlanta Center
05:48PM 32.5364 -84.9653 240° Southwest 447 514 36,000  Level Atlanta Center
05:49PM 32.4747 -85.0975 241° Southwest 455 524 36,000  Level Atlanta Center
05:50PM 32.4150 -85.2297 242° Southwest 455 524 36,000  Level Atlanta Center
05:51PM 32.3594 -85.3592 243° Southwest 455 524 36,000  Level Atlanta Center
05:52PM 32.2953 -85.4886 240° Southwest 455 524 36,000  Level Atlanta Center
05:53PM 32.2353 -85.6203 242° Southwest 455 524 36,000  Level Atlanta Center
05:54PM 32.1731 -85.7517 241° Southwest 455 524 36,000  Level Atlanta Center
05:55PM 32.1128 -85.8878 242° Southwest 460 529 36,000  Level Atlanta Center
05:56PM 32.0500 -86.0189 241° Southwest 460 529 36,000  Level Atlanta Center
05:57PM 31.9811 -86.1592 240° Southwest 455 524 36,000  Level Atlanta Center
05:58PM 31.9203 -86.2900 241° Southwest 455 524 36,000  Level Atlanta Center
05:59PM 31.8594 -86.4206 241° Southwest 455 524 36,000  Level Atlanta Center
06:00PM 31.8003 -86.5508 242° Southwest 455 524 36,000  Level Atlanta Center
06:01PM 31.7392 -86.6833 242° Southwest 455 524 36,000  Level Atlanta Center
06:02PM 31.6758 -86.8108 240° Southwest 455 524 36,000  Level Atlanta Center
06:04PM 31.5475 -87.0806 241° Southwest 456 525 36,000  Level Houston Center
06:05PM 31.4856 -87.2106 241° Southwest 457 526 36,000  Level Houston Center
06:06PM 31.4186 -87.3714 244° Southwest 459 528 36,000  Level Houston Center
06:07PM 31.3708 -87.5081 248° West 456 525 36,000  Level Houston Center
06:08PM 31.3261 -87.6450 249° West 454 522 36,000  Level Houston Center
06:09PM 31.2925 -87.7878 255° West 455 524 36,000  Level Houston Center
06:10PM 31.2567 -87.9275 253° West 454 522 36,000  Level Houston Center
06:11PM 31.2108 -88.0967 252° West 463 533 36,000 -60 Level Houston Center
06:12PM 31.1836 -88.2411 258° West 461 531 35,900  Descending Houston Center
06:13PM 31.1494 -88.3858 255° West 464 534 36,000  Climbing Houston Center
06:14PM 31.1133 -88.5217 253° West 454 522 35,900  Descending Houston Center
06:15PM 31.0764 -88.6825 255° West 449 517 36,000  Climbing Houston Center
06:16PM 31.0428 -88.8231 254° West 454 522 36,000  Level Houston Center
06:17PM 31.0089 -88.9731 255° West 453 521 36,000  Level Houston Center
06:19PM 30.9756 -89.1136 255° West 453 521 36,000 -60 Level Houston Center
06:20PM 30.9431 -89.2547 255° West 455 524 35,900 -60 Descending Houston Center
06:21PM 30.9081 -89.3942 254° West 456 525 35,900  Level Houston Center
06:22PM 30.8742 -89.5350 254° West 456 525 36,000  Climbing Houston Center
06:23PM 30.8344 -89.7042 255° West 458 527 36,000 -60 Level Houston Center
06:24PM 30.7947 -89.8442 252° West 466 536 35,900  Descending Houston Center
06:25PM 30.7389 -89.9764 244° Southwest 466 536 36,000  Climbing Houston Center
06:26PM 30.6800 -90.1075 242° Southwest 467 537 36,000  Level Houston Center
06:27PM 30.6142 -90.2361 239° Southwest 472 543 36,000  Level Houston Center
06:28PM 30.5356 -90.3911 240° Southwest 469 540 36,000  Level Houston Center
06:29PM 30.4697 -90.5194 239° Southwest 466 536 36,000  Level Houston Center
06:30PM 30.4019 -90.6494 239° Southwest 472 543 36,000  Level Houston Center
06:31PM 30.3344 -90.7794 239° Southwest 472 543 36,000  Level Houston Center
06:32PM 30.2664 -90.9094 239° Southwest 473 544 36,000  Level Houston Center
06:33PM 30.2008 -91.0383 240° Southwest 469 540 36,000 -60 Level Houston Center
06:34PM 30.1214 -91.1944 240° Southwest 471 542 35,900  Descending Houston Center
06:35PM 30.0542 -91.3236 239° Southwest 471 542 36,000  Climbing Houston Center
06:36PM 29.9861 -91.4536 239° Southwest 474 545 36,000  Level Houston Center
06:37PM 29.9178 -91.5844 239° Southwest 475 547 36,000  Level Houston Center
06:38PM 29.8419 -91.7258 238° Southwest 469 540 36,000  Level Houston Center
06:39PM 29.7750 -91.8547 239° Southwest 469 540 36,000  Level Houston Center
06:40PM 29.7083 -91.9811 239° Southwest 464 534 36,000  Level Houston Center
06:41PM 29.6425 -92.1072 239° Southwest 461 531 36,000  Level Houston Center
06:42PM 29.5753 -92.2319 238° Southwest 459 528 36,000  Level Houston Center
06:43PM 29.5078 -92.3594 239° Southwest 463 533 36,000  Level Houston Center
06:44PM 29.4575 -92.5219 250° West 459 528 36,000  Level Houston Center
06:45PM 29.4650 -92.6656 273° West 455 524 36,000  Level Houston Center
06:46PM 29.4719 -92.8111 273° West 457 526 36,000 -480 Level Houston Center
06:47PM 29.4786 -92.9572 273° West 458 527 35,100 -1,380 Descending Houston Center
06:48PM 29.4847 -93.1047 273° West 462 532 33,200 -2,160 Descending Houston Center
06:50PM 29.4917 -93.2528 273° West 465 535 30,700 -2,760 Descending Houston Center
06:51PM 29.4986 -93.4283 273° West 459 528 27,600 -2,760 Descending Houston Center
06:52PM 29.5056 -93.5767 273° West 463 533 25,100 -1,800 Descending Houston Center
06:53PM 29.5097 -93.7219 272° West 457 526 24,000 -900 Descending Houston Center
06:54PM 29.5164 -93.8622 273° West 444 511 23,300 -1,920 Descending Houston Center
06:54PM 29.5172 -93.9483 271° West 409 471 20,900 -4,140 Descending Houston Center
06:55PM 29.5206 -94.0225 273° West 404 465 18,700 -3,360 Descending Houston Center
06:56PM 29.5247 -94.1233 273° West 411 473 16,000 -2,760 Descending Houston Center
06:57PM 29.5294 -94.2639 272° West 390 449 13,300 -1,800 Descending Houston Center
06:58PM 29.5456 -94.3725 280° West 332 382 12,400 -1,440 Descending Houston Center
06:59PM 29.5842 -94.4653 296° West 322 371 10,400 -1,800 Descending Houston Center
07:00PM 29.6211 -94.5511 296° West 306 352 8,700 -1,680 Descending Houston Center
07:01PM 29.6553 -94.6306 296° West 284 327 7,000 -1,380 Descending Houston Center
07:02PM 29.7078 -94.6900 315° West 277 319 5,900 -1,080 Descending Houston Center
07:03PM 29.7806 -94.7517 324° Northwest 273 314 4,800 -1,020 Descending Houston Center
07:04PM 29.8394 -94.8017 324° Northwest 278 320 4,000 -840 Descending Houston Center
07:05PM 29.8922 -94.8697 312° West 265 305 3,200 -480 Descending Houston Center
07:06PM 29.9392 -94.9436 306° West 266 306 3,000 -540 Descending Houston Center
07:07PM 29.9733 -95.0164 298° West 260 299 2,200 -480 Descending Houston Center
07:08PM 29.9786 -95.0919 275° West 236 272 2,000 -120 Descending Houston Center
07:09PM 29.9778 -95.1533 269° West 202 232 2,000 -180 Level Houston Center
07:10PM 29.9783 -95.2042 271° West 154 177 1,700 -540 Descending Houston Center
07:11PM 29.9783 -95.2558 270° West 158 182 900 -660 Descending Houston Center
07:12PM 29.9781 -95.3069 270° West 150 173 300 -600 Descending Houston Center